Time;durP1;ratioP1;P1;durP2;ratioP2;P2;SDS_P1;SDS_P2;PMS_P1;PMS_P2;Temp;Humidity;BMP_temperature;BMP_pressure;BME280_temperature;BME280_humidity;BME280_pressure;Samples;Min_cycle;Max_cycle;Signal;HPM_P1;HPM_P2
2021/03/25 00:01:43;;;;;;;32.67;21.75;;;9.50;91.50;;;;;;5070388;28;20016;-82
2021/03/25 00:04:08;;;;;;;35.72;21.52;;;9.50;91.50;;;;;;5070630;28;20013;-81
2021/03/25 00:06:41;;;;;;;35.42;23.33;;;9.50;91.60;;;;;;5070488;28;20024;-81
2021/03/25 00:09:30;;;;;;;43.33;27.73;;;9.60;91.70;;;;;;5070442;28;20020;-81
2021/03/25 00:11:56;;;;;;;36.07;24.27;;;9.50;91.70;;;;;;5071884;28;20028;-81
2021/03/25 00:14:22;;;;;;;41.38;26.30;;;9.40;92.00;;;;;;5070486;28;20021;-81
2021/03/25 00:16:48;;;;;;;42.50;26.05;;;9.40;92.10;;;;;;5071285;28;20041;-81
2021/03/25 00:19:13;;;;;;;37.22;25.42;;;9.40;92.30;;;;;;5070382;28;20031;-81
2021/03/25 00:21:39;;;;;;;43.05;25.58;;;9.30;92.40;;;;;;5070122;28;20025;-81
2021/03/25 00:24:06;;;;;;;40.03;24.27;;;9.30;92.50;;;;;;5071744;28;20046;-82
2021/03/25 00:26:32;;;;;;;39.88;24.50;;;9.30;92.50;;;;;;5071310;28;20021;-81
2021/03/25 00:28:58;;;;;;;39.55;26.20;;;9.30;92.60;;;;;;5067613;28;20499;-81
2021/03/25 00:31:24;;;;;;;37.47;24.77;;;9.40;92.60;;;;;;5070410;28;20024;-81
2021/03/25 00:33:50;;;;;;;39.97;25.48;;;9.50;92.50;;;;;;5071506;28;20114;-81
2021/03/25 00:36:16;;;;;;;35.65;24.08;;;9.50;92.40;;;;;;5070134;28;20063;-81
2021/03/25 00:38:41;;;;;;;36.05;23.48;;;9.60;92.40;;;;;;5069959;28;20492;-82
2021/03/25 00:41:07;;;;;;;35.72;23.50;;;9.60;92.30;;;;;;5069961;28;20015;-81
2021/03/25 00:43:33;;;;;;;39.17;24.58;;;9.60;92.40;;;;;;5071661;28;20017;-81
2021/03/25 00:45:58;;;;;;;36.25;22.25;;;9.60;92.30;;;;;;5070001;28;20028;-82
2021/03/25 00:48:25;;;;;;;31.02;20.67;;;9.60;92.40;;;;;;5073275;28;20025;-81
2021/03/25 00:50:57;;;;;;;32.38;20.95;;;9.50;92.40;;;;;;5073616;28;20024;-81
2021/03/25 00:53:26;;;;;;;31.90;20.67;;;9.40;92.60;;;;;;5073825;28;20143;-82
2021/03/25 00:55:52;;;;;;;36.63;23.27;;;9.40;92.90;;;;;;5074396;28;20029;-82
2021/03/25 00:58:19;;;;;;;32.85;22.92;;;9.30;93.00;;;;;;5073466;28;20016;-81
2021/03/25 01:00:46;;;;;;;35.60;22.73;;;9.30;93.10;;;;;;5073655;28;20039;-81
2021/03/25 01:03:14;;;;;;;31.02;22.10;;;9.30;93.20;;;;;;5073322;28;20017;-81
2021/03/25 01:05:40;;;;;;;34.25;22.80;;;9.30;93.30;;;;;;5073393;28;20017;-81
2021/03/25 01:08:07;;;;;;;33.83;21.48;;;9.30;93.60;;;;;;5074723;28;20029;-81
2021/03/25 01:10:34;;;;;;;32.35;21.75;;;9.30;93.30;;;;;;5074649;28;20103;-82
2021/03/25 01:13:02;;;;;;;31.77;20.50;;;9.40;93.30;;;;;;5073104;28;20024;-81
2021/03/25 01:15:28;;;;;;;37.83;22.92;;;9.40;93.30;;;;;;5074311;28;20400;-82
2021/03/25 01:17:57;;;;;;;47.75;27.45;;;9.40;93.30;;;;;;5073010;28;20484;-82
2021/03/25 01:20:35;;;;;;;50.30;33.63;;;9.30;93.30;;;;;;5073182;28;20024;-82
2021/03/25 01:23:01;;;;;;;44.00;27.95;;;9.30;93.70;;;;;;5073185;28;20028;-82
2021/03/25 01:25:28;;;;;;;37.88;26.45;;;9.30;93.80;;;;;;5073148;28;20055;-82
2021/03/25 01:27:59;;;;;;;36.25;24.35;;;9.30;93.90;;;;;;5072846;28;20032;-82
2021/03/25 01:30:26;;;;;;;36.42;24.80;;;9.30;93.90;;;;;;5074258;28;20024;-81
2021/03/25 01:32:52;;;;;;;33.60;22.83;;;9.20;94.10;;;;;;5073100;28;20020;-82
2021/03/25 01:35:18;;;;;;;34.33;22.92;;;9.20;94.20;;;;;;5072990;28;20048;-82
2021/03/25 01:37:46;;;;;;;32.17;22.65;;;9.30;94.20;;;;;;5072774;28;20074;-81
2021/03/25 01:40:20;;;;;;;35.83;23.17;;;9.30;94.20;;;;;;5072843;28;20073;-82
2021/03/25 01:42:46;;;;;;;41.40;26.80;;;9.30;94.30;;;;;;5073871;28;20044;-81
2021/03/25 01:45:30;;;;;;;48.47;29.67;;;9.30;94.40;;;;;;5072796;28;20547;-81
2021/03/25 01:48:00;;;;;;;49.25;32.72;;;9.30;94.20;;;;;;5072781;28;20024;-81
2021/03/25 01:50:26;;;;;;;52.85;35.03;;;9.30;94.30;;;;;;5073861;28;20021;-81
2021/03/25 01:53:10;;;;;;;50.75;34.75;;;9.40;94.60;;;;;;5073883;28;20032;-81
2021/03/25 01:55:39;;;;;;;49.75;33.90;;;9.40;94.80;;;;;;5074001;28;20519;-81
2021/03/25 01:58:21;;;;;;;58.17;38.10;;;9.30;94.90;;;;;;5071888;28;20456;-82
2021/03/25 02:01:03;;;;;;;57.90;36.97;;;9.40;95.10;;;;;;5072460;28;20551;-82
2021/03/25 02:03:45;;;;;;;49.88;30.08;;;9.30;95.30;;;;;;5087436;28;20021;-81
2021/03/25 02:06:32;;;;;;;45.97;31.20;;;9.30;95.40;;;;;;5072417;28;20020;-81
2021/03/25 02:09:10;;;;;;;44.78;29.13;;;9.30;95.30;;;;;;5072901;28;20032;-82
2021/03/25 02:11:48;;;;;;;59.58;36.10;;;9.30;95.40;;;;;;5073425;28;20480;-82
2021/03/25 02:14:25;;;;;;;65.85;42.00;;;9.40;95.40;;;;;;5072096;28;20047;-82
2021/03/25 02:17:17;;;;;;;64.38;41.63;;;9.30;95.50;;;;;;5071661;28;20239;-81
2021/03/25 02:20:12;;;;;;;58.13;35.78;;;9.30;95.60;;;;;;5071971;28;20028;-81
2021/03/25 02:23:14;;;;;;;60.67;37.55;;;9.10;95.70;;;;;;5056859;28;20074;-82
2021/03/25 02:26:24;;;;;;;56.60;36.47;;;9.00;96.10;;;;;;5088484;28;20013;-82
2021/03/25 02:29:18;;;;;;;45.63;29.88;;;9.00;96.20;;;;;;5012713;28;20553;-81
2021/03/25 02:31:49;;;;;;;43.60;28.30;;;9.00;96.30;;;;;;5070570;28;20024;-81
2021/03/25 02:34:30;;;;;;;45.40;30.70;;;9.10;96.20;;;;;;5071883;28;20028;-81
2021/03/25 02:37:03;;;;;;;52.05;31.70;;;9.10;96.00;;;;;;5071271;28;20089;-81
2021/03/25 02:39:45;;;;;;;52.13;31.92;;;9.10;96.20;;;;;;5070136;28;20055;-82
2021/03/25 02:42:14;;;;;;;61.53;38.70;;;9.20;96.10;;;;;;5072299;28;20019;-82
2021/03/25 02:44:49;;;;;;;57.25;37.85;;;9.20;96.10;;;;;;5071368;28;20082;-82
2021/03/25 02:47:16;;;;;;;50.85;33.28;;;9.20;96.10;;;;;;5071551;28;20020;-82
2021/03/25 02:50:02;;;;;;;44.67;29.63;;;9.20;96.00;;;;;;5072654;28;20020;-81
2021/03/25 02:52:34;;;;;;;37.97;26.13;;;9.20;96.00;;;;;;5071415;28;20067;-82
2021/03/25 02:55:04;;;;;;;44.33;27.85;;;9.20;96.20;;;;;;5071328;28;20473;-82
2021/03/25 02:57:49;;;;;;;42.97;26.08;;;9.20;96.30;;;;;;5071341;28;20050;-82
2021/03/25 03:00:20;;;;;;;49.30;28.63;;;9.20;96.10;;;;;;5071145;28;20053;-81
2021/03/25 03:02:50;;;;;;;52.83;32.17;;;9.20;96.00;;;;;;5072552;28;20381;-81
2021/03/25 03:05:24;;;;;;;;;;;9.20;96.00;;;;;;5072948;28;20021;-82
2021/03/25 03:08:24;;;;;;;46.50;29.70;;;9.20;96.00;;;;;;5072408;28;19953;-81
2021/03/25 03:11:22;;;;;;;48.05;29.13;;;9.10;96.10;;;;;;5065223;28;20459;-82
2021/03/25 03:14:00;;;;;;;50.78;32.15;;;9.10;96.10;;;;;;5058234;28;20086;-82
2021/03/25 03:16:32;;;;;;;54.38;35.00;;;9.00;96.10;;;;;;5070625;28;20048;-82
2021/03/25 03:19:19;;;;;;;56.70;35.95;;;9.00;96.10;;;;;;5071072;28;20025;-81
2021/03/25 03:21:49;;;;;;;52.08;32.42;;;9.00;96.30;;;;;;5070874;28;20013;-82
2021/03/25 03:24:15;;;;;;;48.97;29.70;;;9.00;96.30;;;;;;5071133;28;20048;-82
2021/03/25 03:27:08;;;;;;;43.38;27.95;;;9.00;96.40;;;;;;5072044;28;20082;-81
2021/03/25 03:29:34;;;;;;;42.95;26.98;;;9.00;96.40;;;;;;5064023;28;20028;-81
2021/03/25 03:32:06;;;;;;;40.45;27.02;;;9.10;96.70;;;;;;5070880;28;20495;-81
2021/03/25 03:34:36;;;;;;;42.42;27.40;;;9.10;96.30;;;;;;5086045;28;20109;-81
2021/03/25 03:37:07;;;;;;;42.38;27.40;;;9.10;96.20;;;;;;5070824;28;20038;-81
2021/03/25 03:39:34;;;;;;;51.38;33.55;;;9.10;96.20;;;;;;5070761;28;20021;-81
2021/03/25 03:42:14;;;;;;;50.30;32.45;;;9.10;96.20;;;;;;5070694;28;20025;-81
2021/03/25 03:44:43;;;;;;;46.72;30.55;;;9.10;96.20;;;;;;5070520;28;20020;-81
2021/03/25 03:47:11;;;;;;;47.25;30.63;;;9.00;96.20;;;;;;5072022;28;20047;-82
2021/03/25 03:49:39;;;;;;;58.25;36.33;;;9.10;96.20;;;;;;5071985;28;20020;-82
2021/03/25 03:52:28;;;;;;;70.30;42.60;;;9.00;96.30;;;;;;5070500;28;20564;-81
2021/03/25 03:54:55;;;;;;;62.78;40.00;;;8.90;96.50;;;;;;5071940;28;20115;-81
2021/03/25 03:58:01;;;;;;;56.63;34.00;;;8.80;96.80;;;;;;5070506;28;20048;-82
2021/03/25 04:00:32;;;;;;;53.53;34.22;;;8.90;96.70;;;;;;5070033;28;20127;-82
2021/03/25 04:03:07;;;;;;;52.95;33.42;;;8.80;96.60;;;;;;5070573;28;20464;-82
2021/03/25 04:05:40;;;;;;;45.35;29.88;;;8.90;96.60;;;;;;5085885;28;20024;-82
2021/03/25 04:08:14;;;;;;;49.13;30.40;;;8.80;96.60;;;;;;5071760;28;20017;-81
2021/03/25 04:10:42;;;;;;;46.97;30.77;;;8.80;96.60;;;;;;5071618;28;20035;-82
2021/03/25 04:13:16;;;;;;;48.92;30.52;;;8.70;96.80;;;;;;5070472;28;20499;-82
2021/03/25 04:15:47;;;;;;;56.03;34.83;;;8.70;97.00;;;;;;5070228;28;20098;-82
2021/03/25 04:18:35;;;;;;;73.75;43.47;;;8.60;97.20;;;;;;5070422;28;20028;-82
2021/03/25 04:21:19;;;;;;;76.40;47.67;;;8.50;97.40;;;;;;5070056;28;20047;-82
2021/03/25 04:23:45;;;;;;;63.80;41.38;;;8.40;98.30;;;;;;5074381;28;20104;-82
2021/03/25 04:26:26;;;;;;;54.40;35.78;;;8.40;98.60;;;;;;5075561;28;20021;-82
2021/03/25 04:29:05;;;;;;;50.83;32.45;;;8.40;98.40;;;;;;5074084;28;20032;-82
2021/03/25 04:31:32;;;;;;;48.13;29.58;;;8.50;98.30;;;;;;5088979;28;20468;-82
2021/03/25 04:33:59;;;;;;;51.65;30.30;;;8.50;98.20;;;;;;5075448;28;20028;-82
2021/03/25 04:36:29;;;;;;;42.92;28.50;;;8.50;98.20;;;;;;5072695;28;20551;-82
2021/03/25 04:38:55;;;;;;;45.70;29.15;;;8.60;98.10;;;;;;5074021;28;20036;-82
2021/03/25 04:41:22;;;;;;;45.28;28.00;;;8.60;98.10;;;;;;5075128;28;20380;-82
2021/03/25 04:43:48;;;;;;;41.13;27.17;;;8.60;98.00;;;;;;5074004;28;20024;-82
2021/03/25 04:46:45;;;;;;;44.22;26.88;;;8.70;97.90;;;;;;5074778;28;20024;-82
2021/03/25 04:49:16;;;;;;;49.00;29.88;;;8.70;97.70;;;;;;5073840;28;20115;-82
2021/03/25 04:51:42;;;;;;;44.92;28.00;;;8.70;97.70;;;;;;5073714;28;20024;-81
2021/03/25 04:54:33;;;;;;;46.15;27.67;;;8.70;97.90;;;;;;5073675;28;20357;-82
2021/03/25 04:57:06;;;;;;;52.03;31.48;;;8.80;97.50;;;;;;5073674;28;20028;-82
2021/03/25 04:59:32;;;;;;;49.47;30.40;;;8.70;97.60;;;;;;5073713;28;20472;-82
2021/03/25 05:01:59;;;;;;;41.88;28.73;;;8.80;97.60;;;;;;5073466;28;20021;-82
2021/03/25 05:04:25;;;;;;;42.33;27.55;;;8.70;97.50;;;;;;5073399;28;20582;-82
2021/03/25 05:06:58;;;;;;;44.22;27.48;;;8.70;97.50;;;;;;5074650;28;20045;-82
2021/03/25 05:09:26;;;;;;;43.80;27.30;;;8.70;97.50;;;;;;5074868;28;20589;-82
2021/03/25 05:11:53;;;;;;;41.33;26.98;;;8.70;97.60;;;;;;5074646;28;20036;-82
2021/03/25 05:14:21;;;;;;;50.25;30.58;;;8.60;97.60;;;;;;5074803;28;20012;-82
2021/03/25 05:17:05;;;;;;;45.92;29.98;;;8.60;97.90;;;;;;5072778;28;20040;-82
2021/03/25 05:19:45;;;;;;;51.28;30.60;;;8.50;97.60;;;;;;5074645;28;20016;-82
2021/03/25 05:22:45;;;;;;;41.58;28.00;;;8.40;97.80;;;;;;5088289;28;20380;-82
2021/03/25 05:25:40;;;;;;;42.35;26.33;;;8.40;97.90;;;;;;5073221;28;20043;-82
2021/03/25 05:28:17;;;;;;;43.70;27.60;;;8.30;98.00;;;;;;5073346;28;20024;-82
2021/03/25 05:30:44;;;;;;;56.33;31.02;;;8.30;98.10;;;;;;5072968;28;20020;-81
2021/03/25 05:33:15;;;;;;;51.65;32.35;;;8.30;98.10;;;;;;5073518;28;20020;-82
2021/03/25 05:35:47;;;;;;;54.50;33.38;;;8.30;98.10;;;;;;5072755;28;20017;-82
2021/03/25 05:38:13;;;;;;;56.55;34.28;;;8.20;98.10;;;;;;5073042;28;20020;-82
2021/03/25 05:40:50;;;;;;;51.63;32.53;;;8.20;98.20;;;;;;5074262;28;20016;-82
2021/03/25 05:43:56;;;;;;;46.90;28.70;;;8.10;98.20;;;;;;5073185;28;20017;-82
2021/03/25 05:46:43;;;;;;;44.30;26.52;;;8.00;98.20;;;;;;5089226;28;20490;-82
2021/03/25 05:49:40;;;;;;;40.50;24.48;;;7.80;98.50;;;;;;5072826;28;20502;-82
2021/03/25 05:52:27;;;;;;;36.90;23.08;;;7.80;98.70;;;;;;5085288;28;20025;-82
2021/03/25 05:55:06;;;;;;;36.38;24.30;;;7.90;98.60;;;;;;5089239;28;20029;-81
2021/03/25 05:58:09;;;;;;;36.60;22.13;;;7.90;98.70;;;;;;5072676;28;20107;-82
2021/03/25 06:00:38;;;;;;;32.58;22.52;;;7.80;98.50;;;;;;5031389;28;20026;-81
2021/03/25 06:03:10;;;;;;;47.47;29.90;;;7.80;98.70;;;;;;5061999;28;20108;-82
2021/03/25 06:05:36;;;;;;;43.20;29.00;;;7.80;98.70;;;;;;5073599;28;20475;-82
2021/03/25 06:08:21;;;;;;;53.83;31.17;;;7.80;98.70;;;;;;5074001;28;20086;-82
2021/03/25 06:11:11;;;;;;;57.13;33.13;;;7.80;98.70;;;;;;5072910;28;20035;-81
2021/03/25 06:13:51;;;;;;;54.20;31.63;;;7.80;98.80;;;;;;5058290;28;20024;-81
2021/03/25 06:16:25;;;;;;;47.85;29.45;;;7.80;98.70;;;;;;5070306;28;20412;-81
2021/03/25 06:19:00;;;;;;;44.42;28.05;;;7.80;98.70;;;;;;5079338;28;20493;-82
2021/03/25 06:21:50;;;;;;;45.17;26.63;;;7.80;98.70;;;;;;5072658;28;20025;-81
2021/03/25 06:24:46;;;;;;;43.58;26.27;;;7.80;98.70;;;;;;5072410;28;20025;-81
2021/03/25 06:27:31;;;;;;;48.38;29.10;;;7.80;98.70;;;;;;5073984;28;20032;-82
2021/03/25 06:30:04;;;;;;;45.15;26.58;;;7.80;98.80;;;;;;5072348;28;20020;-81
2021/03/25 06:32:35;;;;;;;46.40;27.92;;;7.80;98.70;;;;;;5073609;28;20052;-81
2021/03/25 06:35:15;;;;;;;41.25;27.45;;;7.80;98.70;;;;;;5072669;28;20033;-80
2021/03/25 06:38:00;;;;;;;;;;;7.90;98.80;;;;;;5073147;28;20031;-80
2021/03/25 06:40:39;;;;;;;48.15;29.55;;;7.80;99.00;;;;;;5071789;28;19908;-80
2021/03/25 06:43:12;;;;;;;66.45;37.67;;;7.70;99.10;;;;;;5053592;28;20538;-80
2021/03/25 06:45:45;;;;;;;80.10;46.40;;;7.80;99.40;;;;;;5053585;28;20029;-80
2021/03/25 06:48:17;;;;;;;102.05;55.72;;;7.80;99.90;;;;;;5053762;28;20036;-79
2021/03/25 06:50:53;;;;;;;96.50;54.92;;;7.80;99.90;;;;;;5052280;28;20061;-79
2021/03/25 06:53:29;;;;;;;104.43;58.22;;;7.90;99.90;;;;;;5052443;28;20053;-79
2021/03/25 06:55:58;;;;;;;98.93;57.40;;;7.80;99.90;;;;;;5052395;28;20048;-79
2021/03/25 06:58:38;;;;;;;93.68;52.30;;;7.80;99.90;;;;;;5068945;28;20100;-83
2021/03/25 07:01:20;;;;;;;94.60;52.92;;;7.70;99.90;;;;;;5052423;28;20029;-79
2021/03/25 07:03:49;;;;;;;92.82;56.72;;;7.70;99.90;;;;;;5052083;28;20025;-79
2021/03/25 07:06:15;;;;;;;92.90;56.08;;;7.60;99.90;;;;;;5052197;28;20075;-79
2021/03/25 07:08:41;;;;;;;88.22;51.05;;;7.60;99.90;;;;;;5072716;28;20020;-83
2021/03/25 07:11:18;;;;;;;82.97;51.08;;;7.60;99.90;;;;;;5072126;28;20032;-80
2021/03/25 07:13:54;;;;;;;80.63;48.35;;;7.70;99.90;;;;;;5072156;28;20035;-80
2021/03/25 07:16:20;;;;;;;85.40;51.63;;;7.70;99.90;;;;;;5071897;28;20040;-81
2021/03/25 07:18:56;;;;;;;87.95;52.00;;;7.80;99.90;;;;;;5071713;28;20024;-81
2021/03/25 07:21:43;;;;;;;92.95;55.42;;;7.80;99.90;;;;;;5073285;28;20076;-81
2021/03/25 07:24:25;;;;;;;90.93;54.55;;;7.80;99.90;;;;;;5073283;28;20021;-81
2021/03/25 07:27:16;;;;;;;84.55;49.03;;;7.80;99.90;;;;;;5073179;28;20025;-80
2021/03/25 07:30:00;;;;;;;84.30;51.33;;;7.90;99.90;;;;;;5081246;28;20039;-80
2021/03/25 07:32:39;;;;;;;84.90;52.50;;;7.90;99.90;;;;;;5069703;28;20044;-80
2021/03/25 07:35:26;;;;;;;89.35;54.30;;;8.00;99.90;;;;;;5071890;28;20028;-80
2021/03/25 07:37:52;;;;;;;73.38;48.42;;;8.10;99.90;;;;;;5466092;22;20298;-84
2021/03/25 07:40:38;;;;;;;95.43;54.75;;;8.10;99.90;;;;;;5043811;28;20033;-85
2021/03/25 07:43:24;;;;;;;92.90;55.25;;;8.20;99.90;;;;;;5030005;28;20068;-85
2021/03/25 07:46:08;;;;;;;91.43;56.92;;;8.20;99.90;;;;;;5030713;28;20049;-84
2021/03/25 07:48:34;;;;;;;86.32;52.63;;;8.20;99.90;;;;;;5028307;28;20021;-83
2021/03/25 07:51:12;;;;;;;89.78;54.55;;;8.20;99.90;;;;;;5031303;28;20530;-83
2021/03/25 07:53:39;;;;;;;95.10;55.60;;;8.30;99.90;;;;;;5028394;28;20035;-83
2021/03/25 07:56:07;;;;;;;95.32;54.92;;;8.30;99.90;;;;;;5028665;28;20053;-84
2021/03/25 07:58:42;;;;;;;89.00;54.30;;;8.30;99.90;;;;;;5036305;28;20037;-83
2021/03/25 08:01:09;;;;;;;90.07;56.92;;;8.40;99.90;;;;;;5035747;28;20068;-83
2021/03/25 08:03:52;;;;;;;82.28;55.15;;;8.50;99.90;;;;;;5035663;28;20057;-84
2021/03/25 08:06:39;;;;;;;94.72;59.55;;;8.50;99.90;;;;;;5030902;28;20136;-85
2021/03/25 08:09:07;;;;;;;86.25;51.90;;;8.60;99.90;;;;;;5046397;28;20029;-85
2021/03/25 08:11:35;;;;;;;94.30;56.22;;;8.70;99.90;;;;;;5016984;28;20496;-85
2021/03/25 08:14:21;;;;;;;90.85;54.33;;;8.80;99.90;;;;;;4999522;28;20042;-85
2021/03/25 08:16:51;;;;;;;80.95;50.60;;;9.00;99.90;;;;;;5033840;28;20029;-85
2021/03/25 08:19:25;;;;;;;86.45;54.65;;;9.10;99.90;;;;;;5036290;28;20025;-85
2021/03/25 08:22:06;;;;;;;92.97;55.13;;;9.30;99.90;;;;;;5024040;28;20014;-85
2021/03/25 08:24:50;;;;;;;86.93;52.97;;;9.40;99.90;;;;;;5043158;28;20100;-85
2021/03/25 08:27:35;;;;;;;88.10;51.25;;;9.50;99.90;;;;;;5015332;28;20091;-85
2021/03/25 08:30:32;;;;;;;78.93;46.78;;;9.60;99.90;;;;;;5015507;28;20117;-85
2021/03/25 08:33:03;;;;;;;80.28;50.00;;;9.60;99.90;;;;;;5017333;28;20544;-85
2021/03/25 08:35:38;;;;;;;91.28;52.65;;;9.70;99.90;;;;;;5034831;28;20029;-85
2021/03/25 08:38:15;;;;;;;82.72;48.85;;;9.70;99.90;;;;;;5034867;28;20038;-85
2021/03/25 08:40:49;;;;;;;74.00;48.25;;;9.80;99.90;;;;;;5036423;28;20092;-85
2021/03/25 08:43:32;;;;;;;73.80;44.85;;;9.80;99.90;;;;;;5036231;28;20024;-85
2021/03/25 08:46:03;;;;;;;73.07;46.22;;;9.90;99.90;;;;;;5034879;28;20477;-86
2021/03/25 08:49:02;;;;;;;77.68;48.45;;;10.00;99.90;;;;;;5034689;28;20120;-86
2021/03/25 08:51:37;;;;;;;72.53;46.25;;;10.00;99.90;;;;;;5019369;28;20034;-85
2021/03/25 08:54:15;;;;;;;66.28;43.08;;;10.10;99.90;;;;;;5034425;28;20496;-85
2021/03/25 08:56:48;;;;;;;70.28;43.53;;;10.30;99.90;;;;;;5034794;28;20120;-85
2021/03/25 08:59:14;;;;;;;63.53;41.05;;;10.40;99.90;;;;;;5036076;28;20033;-85
2021/03/25 09:01:55;;;;;;;69.65;44.30;;;10.40;99.90;;;;;;5034589;28;20033;-85
2021/03/25 09:04:23;;;;;;;59.53;39.00;;;10.60;99.90;;;;;;5034628;28;20026;-86
2021/03/25 09:06:51;;;;;;;63.75;38.22;;;10.60;99.90;;;;;;5034453;28;20079;-85
2021/03/25 09:09:52;;;;;;;59.35;36.85;;;10.80;99.90;;;;;;5034651;28;20026;-84
2021/03/25 09:12:24;;;;;;;54.47;36.22;;;11.10;99.90;;;;;;5034489;28;20026;-85
2021/03/25 09:14:51;;;;;;;47.38;31.30;;;11.20;99.90;;;;;;5034295;28;20033;-85
2021/03/25 09:17:21;;;;;;;51.72;32.60;;;11.40;99.90;;;;;;5033990;28;20025;-85
2021/03/25 09:19:54;;;;;;;51.58;31.40;;;11.90;99.90;;;;;;5014886;28;20091;-85
2021/03/25 09:22:38;;;;;;;47.42;30.25;;;13.50;96.80;;;;;;5030777;28;20022;-85
2021/03/25 09:25:33;;;;;;;44.55;29.83;;;13.90;93.60;;;;;;5030886;28;20405;-86
2021/03/25 09:28:09;;;;;;;41.72;27.60;;;13.70;93.10;;;;;;5030857;28;20539;-83
2021/03/25 09:30:46;;;;;;;43.58;29.63;;;13.50;93.10;;;;;;5030677;28;20030;-84
2021/03/25 09:33:37;;;;;;;45.22;29.98;;;13.50;93.20;;;;;;5030371;28;20080;-84
2021/03/25 09:36:18;;;;;;;38.50;26.75;;;13.70;93.00;;;;;;5033950;28;20053;-84
2021/03/25 09:38:50;;;;;;;41.97;27.08;;;15.30;92.20;;;;;;5033368;28;20049;-85
2021/03/25 09:41:25;;;;;;;38.45;26.10;;;15.90;86.60;;;;;;5030722;28;20041;-85
2021/03/25 09:44:14;;;;;;;38.45;25.77;;;15.30;85.70;;;;;;5050253;28;20021;-84
2021/03/25 09:46:41;;;;;;;34.38;21.88;;;14.70;86.30;;;;;;5046034;28;20018;-85
2021/03/25 09:49:28;;;;;;;38.70;25.55;;;14.30;89.00;;;;;;5033669;28;20120;-85
2021/03/25 09:52:13;;;;;;;36.13;24.30;;;14.50;89.60;;;;;;5031492;28;20083;-85
2021/03/25 09:54:46;;;;;;;32.97;22.80;;;14.50;89.00;;;;;;5034562;28;20112;-85
2021/03/25 09:57:30;;;;;;;30.52;21.50;;;14.40;88.50;;;;;;5033594;28;20025;-87
2021/03/25 10:00:08;;;;;;;31.75;21.38;;;14.40;88.30;;;;;;5034862;28;20028;-86
2021/03/25 10:02:40;;;;;;;35.13;21.98;;;14.10;88.80;;;;;;5033563;28;20527;-87
2021/03/25 10:05:33;;;;;;;36.40;23.90;;;13.80;88.70;;;;;;5033463;28;20033;-86
2021/03/25 10:08:12;;;;;;;27.42;18.38;;;13.60;89.60;;;;;;5013736;28;20091;-87
2021/03/25 10:11:00;;;;;;;31.05;19.30;;;13.40;89.00;;;;;;5032810;28;20053;-87
2021/03/25 10:13:43;;;;;;;28.33;18.48;;;13.30;89.60;;;;;;5029990;28;20071;-85
2021/03/25 10:16:34;;;;;;;33.80;20.70;;;13.40;90.30;;;;;;5032791;28;20026;-84
2021/03/25 10:19:03;;;;;;;26.05;19.13;;;14.00;90.00;;;;;;5043694;28;20056;-86
2021/03/25 10:21:44;;;;;;;26.40;18.05;;;15.00;89.00;;;;;;5034221;28;20017;-85
2021/03/25 10:24:19;;;;;;;28.42;18.33;;;15.00;85.70;;;;;;5032811;28;20034;-84
2021/03/25 10:26:46;;;;;;;26.17;17.58;;;14.80;84.70;;;;;;5021475;28;20036;-86
2021/03/25 10:29:40;;;;;;;23.85;16.58;;;14.50;85.60;;;;;;5008744;28;20060;-84
2021/03/25 10:32:16;;;;;;;27.65;19.08;;;14.70;86.50;;;;;;5024290;28;20025;-85
2021/03/25 10:34:43;;;;;;;29.48;19.42;;;14.90;84.30;;;;;;5030455;28;20021;-85
2021/03/25 10:37:45;;;;;;;26.77;18.00;;;14.90;83.60;;;;;;5033490;28;20507;-86
2021/03/25 10:40:25;;;;;;;25.42;18.33;;;14.60;84.20;;;;;;5031085;28;20377;-85
2021/03/25 10:42:58;;;;;;;30.08;19.25;;;14.20;85.80;;;;;;5008461;28;20033;-87
2021/03/25 10:45:31;;;;;;;23.13;16.52;;;13.90;87.50;;;;;;5004140;28;20045;-85
2021/03/25 10:48:16;;;;;;;26.60;17.65;;;13.80;88.60;;;;;;5017682;28;20052;-84
2021/03/25 10:51:04;;;;;;;23.77;18.70;;;13.80;89.80;;;;;;5031756;28;20079;-86
2021/03/25 10:53:36;;;;;;;21.60;15.35;;;13.60;90.80;;;;;;5033636;28;20029;-85
2021/03/25 10:56:07;;;;;;;21.92;16.00;;;13.50;90.90;;;;;;5033575;28;20025;-85
2021/03/25 10:58:42;;;;;;;28.73;17.60;;;13.40;91.00;;;;;;5032256;28;20040;-85
2021/03/25 11:01:26;;;;;;;22.52;16.92;;;13.30;91.30;;;;;;5032131;28;20055;-85
2021/03/25 11:03:52;;;;;;;23.17;18.65;;;13.20;91.80;;;;;;5032343;28;20021;-86
2021/03/25 11:06:24;;;;;;;26.75;19.48;;;13.00;92.30;;;;;;5032298;28;20032;-85
2021/03/25 11:08:50;;;;;;;25.98;17.90;;;13.00;93.00;;;;;;5032078;28;20029;-85
2021/03/25 11:11:23;;;;;;;25.48;18.30;;;12.90;93.80;;;;;;5032220;28;20503;-85
2021/03/25 11:14:19;;;;;;;22.90;16.45;;;12.90;94.00;;;;;;5033409;28;20156;-85
2021/03/25 11:16:51;;;;;;;24.30;16.20;;;12.90;94.20;;;;;;5018769;28;20120;-86
2021/03/25 11:19:18;;;;;;;23.75;15.23;;;12.80;94.80;;;;;;5032017;28;20029;-85
2021/03/25 11:21:44;;;;;;;19.33;14.23;;;12.70;95.00;;;;;;5031489;28;20514;-85
2021/03/25 11:24:32;;;;;;;20.70;15.25;;;12.60;94.60;;;;;;5033030;28;20025;-85
2021/03/25 11:27:05;;;;;;;21.33;15.50;;;12.50;95.10;;;;;;5032050;28;20074;-86
2021/03/25 11:29:35;;;;;;;25.08;16.58;;;12.40;95.60;;;;;;5031913;28;20026;-85
2021/03/25 11:32:16;;;;;;;24.85;16.30;;;12.40;95.80;;;;;;5031049;28;20026;-85
2021/03/25 11:34:45;;;;;;;24.38;17.80;;;12.40;96.50;;;;;;5031632;28;20021;-85
2021/03/25 11:37:16;;;;;;;27.17;18.45;;;12.40;97.00;;;;;;5032901;28;20055;-85
2021/03/25 11:40:00;;;;;;;28.52;19.80;;;12.30;97.40;;;;;;5031498;28;20103;-85
2021/03/25 11:42:29;;;;;;;24.60;19.63;;;12.30;97.80;;;;;;5031885;28;20473;-84
2021/03/25 11:44:55;;;;;;;27.40;20.40;;;12.20;97.90;;;;;;5031557;28;20026;-86
2021/03/25 11:47:44;;;;;;;27.65;21.95;;;12.20;98.00;;;;;;5031745;28;20029;-85
2021/03/25 11:50:15;;;;;;;29.90;21.08;;;12.20;97.80;;;;;;5031973;28;20388;-84
2021/03/25 11:52:47;;;;;;;29.55;20.58;;;12.20;98.60;;;;;;5023606;28;20025;-85
2021/03/25 11:55:50;;;;;;;28.60;21.85;;;12.30;98.00;;;;;;5032604;28;20021;-85
2021/03/25 11:58:19;;;;;;;28.00;19.13;;;12.40;97.70;;;;;;5022540;28;20042;-84
2021/03/25 12:01:05;;;;;;;26.35;19.60;;;12.30;98.30;;;;;;5031655;28;20032;-85
2021/03/25 12:03:45;;;;;;;27.98;20.40;;;12.30;97.70;;;;;;5031423;28;20021;-86
2021/03/25 12:06:23;;;;;;;28.35;22.20;;;12.10;98.20;;;;;;5032853;28;20067;-86
2021/03/25 12:09:05;;;;;;;31.42;23.98;;;12.00;98.20;;;;;;5031406;28;20510;-85
2021/03/25 12:11:36;;;;;;;28.88;22.15;;;11.90;98.50;;;;;;5031456;28;20033;-85
2021/03/25 12:14:02;;;;;;;29.35;22.58;;;11.80;98.90;;;;;;5031901;28;20086;-85
2021/03/25 12:16:27;;;;;;;30.35;24.10;;;11.70;99.40;;;;;;5031278;28;20469;-86
2021/03/25 12:18:57;;;;;;;32.25;23.58;;;11.70;99.90;;;;;;5031300;28;20075;-86
2021/03/25 12:21:23;;;;;;;28.27;22.58;;;11.60;99.90;;;;;;5031454;28;20033;-86
2021/03/25 12:23:53;;;;;;;32.17;23.15;;;11.60;99.90;;;;;;5031397;28;20034;-85
2021/03/25 12:26:19;;;;;;;31.23;23.42;;;11.50;99.90;;;;;;5030890;28;20021;-83
2021/03/25 12:28:44;;;;;;;29.52;22.08;;;11.50;99.90;;;;;;5031765;28;20041;-85
2021/03/25 12:31:18;;;;;;;32.25;22.75;;;11.50;99.90;;;;;;5032106;28;20029;-84
2021/03/25 12:33:44;;;;;;;30.83;23.20;;;11.60;99.90;;;;;;5025451;28;20025;-86
2021/03/25 12:36:11;;;;;;;36.25;26.20;;;11.60;99.90;;;;;;5032454;28;20032;-85
2021/03/25 12:38:37;;;;;;;34.85;25.88;;;11.50;99.90;;;;;;5031453;28;20497;-84
2021/03/25 12:41:03;;;;;;;35.65;25.02;;;11.40;99.90;;;;;;5030482;28;20018;-84
2021/03/25 12:43:31;;;;;;;33.72;24.15;;;11.20;99.90;;;;;;5026939;28;20021;-84
2021/03/25 12:46:01;;;;;;;34.30;24.15;;;11.10;99.90;;;;;;5042591;28;20083;-84
2021/03/25 12:48:30;;;;;;;;;;;11.10;99.90;;;;;;5034475;28;20052;-83
2021/03/25 12:50:56;;;;;;;36.28;23.38;;;11.20;99.90;;;;;;5023944;28;19913;-83
2021/03/25 12:53:25;;;;;;;35.33;25.23;;;11.20;99.90;;;;;;5008554;28;20053;-84
2021/03/25 12:55:52;;;;;;;33.63;24.52;;;11.30;99.90;;;;;;5029604;28;20203;-85
2021/03/25 12:58:34;;;;;;;34.25;26.45;;;11.40;99.90;;;;;;5028439;28;20036;-84
2021/03/25 13:01:11;;;;;;;34.85;25.50;;;11.50;99.90;;;;;;5034063;28;20052;-83
2021/03/25 13:03:39;;;;;;;34.65;25.10;;;11.60;99.90;;;;;;5020302;28;20029;-84
2021/03/25 13:06:06;;;;;;;34.92;24.60;;;11.70;99.90;;;;;;5042463;28;20022;-84
2021/03/25 13:08:31;;;;;;;34.65;25.40;;;11.80;99.90;;;;;;5034301;28;20477;-84
2021/03/25 13:10:57;;;;;;;35.10;25.38;;;11.90;99.90;;;;;;5031149;28;20036;-84
2021/03/25 13:13:23;;;;;;;35.45;25.77;;;12.00;99.90;;;;;;5032039;28;20028;-84
2021/03/25 13:15:49;;;;;;;35.03;25.17;;;12.10;99.90;;;;;;5026036;28;20030;-84